Terminal Aerodrome Forecast
Issued by NWS

Home | Current Version | Previous Version | Text Only | Print | Product List | Glossary On
Versions: 1 2 3 4 5 6 7 8 9 10 11 12 13 14 15 16 17 18 19 20 21 22 23 24 25 26 27 28 29 30 31 32 33 34 35 36 37 38 39 40 41 42 43 44 45 46 47 48 49
000
FTUS41 KCTP 051432 AAA
TAFAOO
TAF AMD
KAOO 051432Z 0515/0612 29005KT P6SM -SHRA SCT035 OVC080
      TEMPO 0515/0519 3SM SHRA OVC030
     FM051900 25006KT P6SM VCSH OVC040
     FM061100 23005KT 5SM -SHRA BR OVC035=

USA.gov is the U.S. government's official web portal to all federal, state and local government web resources and services.